createdAt,value
2022-10-13T00:04:31.808Z,101221.13
2022-10-13T00:09:34.601Z,101221.16
2022-10-13T00:14:37.285Z,101217.70
2022-10-13T00:19:39.966Z,101217.56
2022-10-13T00:24:42.753Z,101214.98
2022-10-13T00:29:46.057Z,101219.02
2022-10-13T00:34:50.423Z,101220.46
2022-10-13T00:39:53.270Z,101223.98
2022-10-13T00:45:05.331Z,101223.31
2022-10-13T00:50:13.400Z,101226.46
2022-10-13T00:55:21.215Z,101225.46
2022-10-13T01:00:24.529Z,101226.85
2022-10-13T01:05:28.712Z,101218.66
2022-10-13T01:10:59.363Z,101219.19
2022-10-13T01:16:20.490Z,101212.09
2022-10-13T01:21:35.187Z,101209.83
2022-10-13T01:27:14.904Z,101206.17
2022-10-13T01:32:49.063Z,101198.00
2022-10-13T01:37:57.622Z,101195.20
2022-10-13T01:43:10.790Z,101196.42
2022-10-13T01:48:16.245Z,101196.05
2022-10-13T01:53:20.606Z,101202.78
2022-10-13T01:58:27.295Z,101197.71
2022-10-13T02:03:51.147Z,101194.75
2022-10-13T02:09:03.822Z,101195.42
2022-10-13T02:14:12.850Z,101195.60
2022-10-13T02:19:18.429Z,101197.67
2022-10-13T02:24:21.215Z,101200.96
2022-10-13T02:29:24.913Z,101193.52
2022-10-13T02:34:27.608Z,101190.58
2022-10-13T02:39:30.336Z,101183.69
2022-10-13T02:44:33.120Z,101178.16
2022-10-13T02:49:35.908Z,101171.26
2022-10-13T02:54:38.652Z,101170.92
2022-10-13T02:59:41.381Z,101170.40
2022-10-13T03:04:44.306Z,101171.77
2022-10-13T03:09:46.980Z,101173.53
2022-10-13T03:14:49.697Z,101170.93
2022-10-13T03:19:52.727Z,101171.63
2022-10-13T03:24:55.612Z,101172.67
2022-10-13T03:29:58.425Z,101171.81
2022-10-13T03:35:01.084Z,101169.73
2022-10-13T03:40:04.642Z,101165.22
2022-10-13T03:45:08.597Z,101160.71
2022-10-13T03:50:11.438Z,101158.45
2022-10-13T03:55:14.151Z,101154.29
2022-10-13T04:00:17.091Z,101154.29
2022-10-13T04:05:19.812Z,101154.29
2022-10-13T04:10:22.526Z,101155.16
2022-10-13T04:15:25.608Z,101155.50
2022-10-13T04:20:28.396Z,101154.30
2022-10-13T04:25:31.240Z,101157.08
2022-10-13T04:30:35.124Z,101158.80
2022-10-13T04:35:44.370Z,101156.53
2022-10-13T04:40:47.142Z,101155.13
2022-10-13T04:45:49.830Z,101152.86
2022-10-13T04:51:04.841Z,101152.35
2022-10-13T04:56:10.746Z,101151.48
2022-10-13T05:01:21.386Z,101156.50
2022-10-13T05:06:27.591Z,101154.41
2022-10-13T05:11:31.312Z,101155.63
2022-10-13T05:16:34.133Z,101150.25
2022-10-13T05:21:36.810Z,101145.39
2022-10-13T05:26:40.294Z,101145.39
2022-10-13T05:31:43.137Z,101139.47
2022-10-13T05:36:45.816Z,101130.91
2022-10-13T05:41:48.514Z,101131.59
2022-10-13T05:46:51.297Z,101124.09
2022-10-13T05:51:57.594Z,101123.20
2022-10-13T05:57:04.969Z,101126.13
2022-10-13T06:02:11.958Z,101128.02
2022-10-13T06:07:16.583Z,101131.95
2022-10-13T06:12:19.955Z,101136.41
2022-10-13T06:17:23.048Z,101141.05
2022-10-13T06:22:29.873Z,101140.09
2022-10-13T06:27:36.216Z,101135.28
2022-10-13T06:32:38.905Z,101132.73
2022-10-13T06:37:41.760Z,101126.70
2022-10-13T06:42:50.005Z,101117.29
2022-10-13T06:47:55.231Z,101115.73
2022-10-13T06:52:58.276Z,101108.59
2022-10-13T06:58:03.543Z,101108.31
2022-10-13T07:03:14.987Z,101103.14
2022-10-13T07:08:20.588Z,101099.66
2022-10-13T07:13:23.679Z,101102.44
2022-10-13T07:18:27.000Z,101102.05
2022-10-13T07:23:29.860Z,101100.81
2022-10-13T07:28:32.655Z,101096.22
2022-10-13T07:33:35.401Z,101091.83
2022-10-13T07:38:38.204Z,101090.52
2022-10-13T07:43:41.351Z,101080.31
2022-10-13T07:48:44.615Z,101081.38
2022-10-13T07:53:50.906Z,101079.40
2022-10-13T07:58:53.822Z,101070.31
2022-10-13T08:03:56.997Z,101063.59
2022-10-13T08:09:00.797Z,101061.80
2022-10-13T08:14:04.266Z,101057.96
2022-10-13T08:19:07.042Z,101050.58
2022-10-13T08:24:12.856Z,101053.53
2022-10-13T08:29:21.829Z,101059.38
2022-10-13T08:34:25.807Z,101061.54
2022-10-13T08:39:31.469Z,101063.38
2022-10-13T08:50:19.511Z,101046.29
2022-10-13T08:55:32.638Z,101053.92
2022-10-13T09:00:37.535Z,101041.79
2022-10-13T09:05:57.093Z,101032.27
2022-10-13T09:11:00.199Z,101018.37
2022-10-13T09:16:05.148Z,101005.52
2022-10-13T09:21:19.944Z,101003.60
2022-10-13T09:26:26.030Z,100999.66
2022-10-13T09:31:30.706Z,100993.91
2022-10-13T09:36:34.905Z,100998.52
2022-10-13T09:41:40.239Z,100994.80
2022-10-13T09:46:51.831Z,100998.67
2022-10-13T09:52:21.687Z,100988.59
2022-10-13T09:57:48.285Z,100982.40
2022-10-13T10:03:10.836Z,100990.80
2022-10-13T10:09:04.068Z,100986.20
2022-10-13T10:14:25.565Z,100986.61
2022-10-13T10:20:06.374Z,100981.50
2022-10-13T10:25:20.847Z,100973.54
2022-10-13T10:30:28.161Z,100961.25
2022-10-13T10:35:55.939Z,100950.54
2022-10-13T10:41:07.638Z,100938.75
2022-10-13T10:46:23.514Z,100935.11
2022-10-13T10:51:35.786Z,100932.40
2022-10-13T10:56:47.828Z,100931.20
2022-10-13T11:02:16.314Z,100935.96
2022-10-13T11:07:22.643Z,100932.63
2022-10-13T11:12:45.299Z,100926.63
2022-10-13T11:17:51.100Z,100923.42
2022-10-13T11:23:00.017Z,100929.42
2022-10-13T11:28:21.590Z,100921.67
2022-10-13T11:33:57.015Z,100911.75
2022-10-13T11:39:09.743Z,100909.69
2022-10-13T11:44:34.873Z,100907.55
2022-10-13T11:49:59.377Z,100899.14
2022-10-13T11:55:12.039Z,100898.45
2022-10-13T12:00:18.542Z,100883.11
2022-10-13T12:05:25.784Z,100880.24
2022-10-13T12:10:33.263Z,100883.31
2022-10-13T12:15:40.144Z,100879.10
2022-10-13T12:20:42.814Z,100866.91
2022-10-13T12:25:48.911Z,100860.63
2022-10-13T12:30:57.523Z,100859.45
2022-10-13T12:36:17.339Z,100850.05
2022-10-13T12:41:26.028Z,100845.67
2022-10-13T12:46:43.770Z,100834.48
2022-10-13T12:51:50.484Z,100826.48
2022-10-13T12:56:57.340Z,100821.95
2022-10-13T13:02:01.714Z,100816.75
2022-10-13T13:07:06.101Z,100815.67
2022-10-13T13:12:08.989Z,100816.32
2022-10-13T13:17:52.942Z,100810.42
2022-10-13T13:22:48.527Z,100797.81
2022-10-13T13:27:52.042Z,100794.86
2022-10-13T13:32:55.457Z,100790.52
2022-10-13T13:37:58.660Z,100789.30
2022-10-13T13:43:01.841Z,100784.59
2022-10-13T13:48:04.925Z,100785.67
2022-10-13T13:53:08.086Z,100783.30
2022-10-13T13:58:10.942Z,100776.30
2022-10-13T14:03:18.489Z,100776.45
2022-10-13T14:08:22.210Z,100781.15
2022-10-13T14:13:25.111Z,100778.37
2022-10-13T14:18:28.099Z,100775.02
2022-10-13T14:23:30.866Z,100774.95
2022-10-13T14:28:33.690Z,100774.42
2022-10-13T14:33:37.170Z,100773.80
2022-10-13T14:38:40.318Z,100772.16
2022-10-13T14:43:43.596Z,100772.27
2022-10-13T14:48:46.604Z,100768.58
2022-10-13T14:53:49.350Z,100763.66
2022-10-13T14:58:54.694Z,100759.30
2022-10-13T15:03:57.822Z,100759.84
2022-10-13T15:09:00.709Z,100766.72
2022-10-13T15:14:03.931Z,100763.44
2022-10-13T15:19:06.684Z,100754.88
2022-10-13T15:24:11.552Z,100747.73
2022-10-13T15:29:14.202Z,100743.94
2022-10-13T15:34:16.894Z,100744.14
2022-10-13T15:39:19.719Z,100742.08
2022-10-13T15:44:25.807Z,100736.69
2022-10-13T15:49:28.575Z,100733.93
2022-10-13T15:54:31.732Z,100730.16
2022-10-13T15:59:34.459Z,100727.93
2022-10-13T16:04:40.300Z,100726.39
2022-10-13T16:09:43.829Z,100719.45
2022-10-13T16:14:49.021Z,100721.24
2022-10-13T16:19:53.633Z,100723.69
2022-10-13T16:24:56.522Z,100717.58
2022-10-13T16:29:59.434Z,100711.64
2022-10-13T16:35:02.183Z,100710.23
2022-10-13T16:40:05.241Z,100703.80
2022-10-13T16:45:08.328Z,100712.02
2022-10-13T16:50:11.124Z,100715.38
2022-10-13T16:55:15.899Z,100715.38
2022-10-13T17:00:18.932Z,100714.77
2022-10-13T17:05:22.928Z,100712.09
2022-10-13T17:10:26.407Z,100709.98
2022-10-13T17:15:29.216Z,100714.84
2022-10-13T17:20:31.916Z,100710.13
2022-10-13T17:25:34.756Z,100706.08
2022-10-13T17:30:37.496Z,100708.21
2022-10-13T17:35:40.378Z,100705.50
2022-10-13T17:40:44.800Z,100703.34
2022-10-13T17:45:47.515Z,100701.33
2022-10-13T17:50:51.552Z,100700.70
2022-10-13T17:56:03.250Z,100700.21
2022-10-13T18:01:17.143Z,100698.85
2022-10-13T18:06:20.440Z,100699.77
2022-10-13T18:11:24.740Z,100702.79
2022-10-13T18:16:27.595Z,100696.95
2022-10-13T18:21:30.368Z,100697.54
2022-10-13T18:26:36.494Z,100695.85
2022-10-13T18:31:40.672Z,100695.05
2022-10-13T18:36:49.643Z,100691.79
2022-10-13T18:41:54.761Z,100693.38
2022-10-13T18:46:57.588Z,100688.02
2022-10-13T18:52:01.742Z,100686.51
2022-10-13T18:57:04.571Z,100681.52
2022-10-13T19:02:07.805Z,100677.56
2022-10-13T19:07:10.609Z,100675.16
2022-10-13T19:12:13.321Z,100679.91
2022-10-13T19:17:17.526Z,100676.64
2022-10-13T19:22:20.486Z,100674.11
2022-10-13T19:27:24.229Z,100671.55
2022-10-13T19:32:27.628Z,100664.63
2022-10-13T19:37:32.306Z,100662.21
2022-10-13T19:42:35.651Z,100653.92
2022-10-13T19:47:38.911Z,100654.85
2022-10-13T19:52:42.426Z,100656.48
2022-10-13T19:57:45.161Z,100654.42
2022-10-13T20:02:47.873Z,100657.55
2022-10-13T20:07:50.726Z,100660.17
2022-10-13T20:12:53.458Z,100657.05
2022-10-13T20:17:56.194Z,100656.52
2022-10-13T20:22:58.912Z,100656.16
2022-10-13T20:28:02.078Z,100653.04
2022-10-13T20:33:04.733Z,100653.20
2022-10-13T20:38:08.089Z,100644.83
2022-10-13T20:43:10.879Z,100637.67
2022-10-13T20:48:13.634Z,100632.11
2022-10-13T20:53:16.353Z,100628.45
2022-10-13T20:58:19.116Z,100624.77
2022-10-13T21:03:23.366Z,100617.12
2022-10-13T21:08:26.063Z,100614.68
2022-10-13T21:13:31.592Z,100615.01
2022-10-13T21:18:34.965Z,100613.24
2022-10-13T21:23:38.922Z,100610.95
2022-10-13T21:28:42.256Z,100609.34
2022-10-13T21:33:45.444Z,100606.17
2022-10-13T21:38:51.670Z,100601.77
2022-10-13T21:43:54.995Z,100601.88
2022-10-13T21:49:02.978Z,100597.89
2022-10-13T21:54:09.214Z,100598.58
2022-10-13T21:59:13.044Z,100593.88
2022-10-13T22:04:15.753Z,100588.67
2022-10-13T22:09:18.808Z,100584.23
2022-10-13T22:14:21.586Z,100587.61
2022-10-13T22:19:24.639Z,100581.08
2022-10-13T22:24:27.355Z,100578.34
2022-10-13T22:29:30.074Z,100572.65
2022-10-13T22:34:32.759Z,100574.79
2022-10-13T22:39:35.434Z,100577.63
2022-10-13T22:44:38.372Z,100580.29
2022-10-13T22:49:41.059Z,100575.99
2022-10-13T22:54:43.753Z,100575.49
2022-10-13T22:59:46.601Z,100575.67
2022-10-13T23:04:49.610Z,100575.35
2022-10-13T23:09:52.415Z,100577.09
2022-10-13T23:14:55.150Z,100577.90
2022-10-13T23:19:57.871Z,100571.92
2022-10-13T23:25:01.083Z,100573.80
2022-10-13T23:30:06.495Z,100571.02
2022-10-13T23:35:09.354Z,100567.69
2022-10-13T23:40:12.806Z,100560.05
2022-10-13T23:45:15.707Z,100558.85
2022-10-13T23:50:18.388Z,100556.60
2022-10-13T23:55:21.076Z,100552.45
